Time;durP1;ratioP1;P1;durP2;ratioP2;P2;SDS_P1;SDS_P2;PMS_P1;PMS_P2;Temp;Humidity;BMP_temperature;BMP_pressure;BME280_temperature;BME280_humidity;BME280_pressure;Samples;Min_cycle;Max_cycle;Signal;HPM_P1;HPM_P2
2023/07/04 00:00:12;;;;;;;7.45;3.28;;;;;;;-145.68;59.47;73329.91;10582377;28;20190;-76
2023/07/04 00:05:13;;;;;;;7.03;2.60;;;;;;;-145.68;59.28;73319.91;10582173;28;20624;-76
2023/07/04 00:10:13;;;;;;;6.90;3.42;;;;;;;-145.68;59.10;73305.91;10581960;28;20186;-76
2023/07/04 00:15:13;;;;;;;7.25;2.90;;;;;;;-145.68;59.69;73317.91;10582064;28;20245;-76
2023/07/04 00:20:14;;;;;;;6.07;2.67;;;;;;;-145.68;59.42;73315.91;10580816;28;20285;-76
2023/07/04 00:25:14;;;;;;;7.55;3.00;;;;;;;-145.68;60.10;73325.91;10581181;28;20217;-76
2023/07/04 00:30:15;;;;;;;10.50;2.55;;;;;;;-145.68;60.60;73333.91;10580967;28;20190;-76
2023/07/04 00:35:15;;;;;;;5.38;2.88;;;;;;;-145.68;60.42;73323.91;10524848;28;20318;-76
2023/07/04 00:40:15;;;;;;;7.00;2.72;;;;;;;-145.68;60.25;73309.91;10537725;28;20237;-76
2023/07/04 00:45:20;;;;;;;6.03;3.05;;;;;;;-145.68;60.17;73303.91;10520133;28;20208;-76
2023/07/04 00:50:25;;;;;;;5.57;2.70;;;;;;;-145.68;61.04;73327.91;10520162;28;20189;-76
2023/07/04 00:55:26;;;;;;;7.93;2.75;;;;;;;-145.68;62.05;73349.88;10519630;28;20234;-76
2023/07/04 01:00:27;;;;;;;7.97;2.70;;;;;;;-145.68;62.52;73359.88;10518311;28;20840;-76
2023/07/04 01:06:06;;;;;;;9.32;3.47;;;;;;;-145.68;63.36;73365.88;10537619;28;20191;-76
2023/07/04 01:11:10;;;;;;;7.72;2.58;;;;;;;-145.68;63.07;73337.91;10532146;28;20345;-76
2023/07/04 01:16:15;;;;;;;5.45;2.97;;;;;;;-145.68;62.89;73323.91;10537654;28;20186;-76
2023/07/04 01:21:17;;;;;;;3.45;2.67;;;;;;;-145.68;63.19;73329.91;10536890;28;20195;-77
2023/07/04 01:26:32;;;;;;;4.70;3.20;;;;;;;-145.68;63.21;73315.91;10501815;28;20195;-76
2023/07/04 01:31:35;;;;;;;8.13;3.22;;;;;;;-145.68;62.89;73303.91;10508628;28;20236;-76
2023/07/04 01:36:38;;;;;;;4.68;2.83;;;;;;;-145.68;63.14;73317.91;10543999;28;20201;-76
2023/07/04 01:41:39;;;;;;;5.53;2.88;;;;;;;-145.68;63.30;73305.91;10559783;28;20213;-76
2023/07/04 01:46:39;;;;;;;8.57;2.83;;;;;;;-145.68;63.58;73303.91;10559843;28;20569;-76
2023/07/04 01:51:40;;;;;;;4.95;2.17;;;;;;;-145.68;63.82;73295.94;10561422;28;20258;-76
2023/07/04 01:56:41;;;;;;;9.13;2.85;;;;;;;-145.68;64.67;73331.91;10493375;28;20183;-77
2023/07/04 02:01:41;;;;;;;5.65;2.83;;;;;;;-145.68;65.02;73323.91;10493707;28;20631;-76
2023/07/04 02:06:42;;;;;;;4.72;2.70;;;;;;;-145.68;65.54;73319.91;10493180;28;20557;-77
2023/07/04 02:11:43;;;;;;;6.38;2.50;;;;;;;-145.68;66.54;73347.88;10493152;28;20215;-76
2023/07/04 02:16:44;;;;;;;4.30;2.75;;;;;;;-145.68;67.78;73365.88;10493050;28;20187;-76
2023/07/04 02:21:44;;;;;;;3.70;2.40;;;;;;;-145.68;69.44;73381.88;10474932;28;20183;-76
2023/07/04 02:26:45;;;;;;;6.38;2.65;;;;;;;-145.68;70.28;73383.88;10458440;28;20194;-76
2023/07/04 02:31:47;;;;;;;4.43;2.28;;;;;;;-145.68;70.04;73359.88;10483134;28;20253;-76
2023/07/04 02:36:48;;;;;;;4.97;2.35;;;;;;;-145.68;69.74;73341.91;10499805;28;20334;-77
2023/07/04 02:41:48;;;;;;;5.40;2.40;;;;;;;-145.68;68.98;73311.91;10533845;28;20230;-76
2023/07/04 02:46:49;;;;;;;5.40;2.20;;;;;;;-145.68;69.00;73305.91;10499691;28;20190;-77
2023/07/04 02:51:49;;;;;;;3.10;2.22;;;;;;;-145.68;68.75;73283.94;10533650;28;20211;-76
2023/07/04 02:56:50;;;;;;;4.60;2.25;;;;;;;-145.68;68.03;73261.94;10515316;28;20186;-76
2023/07/04 03:01:53;;;;;;;4.78;2.05;;;;;;;-145.68;67.78;73243.97;10514701;28;20255;-76
2023/07/04 03:06:54;;;;;;;3.83;1.92;;;;;;;-145.68;67.51;73231.97;10536865;28;20193;-76
2023/07/04 03:11:55;;;;;;;8.43;2.00;;;;;;;-145.68;68.08;73247.97;10553131;28;20210;-77
2023/07/04 03:16:56;;;;;;;6.72;2.47;;;;;;;-145.68;68.21;73233.97;10553542;28;20206;-76
2023/07/04 03:21:56;;;;;;;3.45;2.05;;;;;;;-145.68;68.76;73243.97;10557233;28;20635;-77
2023/07/04 03:26:58;;;;;;;6.20;2.15;;;;;;;-145.68;69.62;73247.97;10561961;28;20285;-76
2023/07/04 03:31:58;;;;;;;4.38;1.70;;;;;;;-145.68;69.77;73233.97;10560912;28;20632;-76
2023/07/04 03:36:59;;;;;;;2.55;2.10;;;;;;;-145.68;70.88;73231.97;10561359;28;20193;-77
2023/07/04 03:41:59;;;;;;;2.88;2.05;;;;;;;-145.68;71.49;73235.97;10560588;28;20178;-77
2023/07/04 03:47:00;;;;;;;4.13;2.25;;;;;;;-145.68;71.42;73225.97;10579582;28;20181;-77
2023/07/04 03:52:00;;;;;;;5.88;2.13;;;;;;;-145.68;71.62;73211.97;10560380;28;20704;-77
2023/07/04 03:57:02;;;;;;;2.83;2.00;;;;;;;-145.68;71.86;73207.97;10544218;28;20613;-77
2023/07/04 04:02:03;;;;;;;4.43;2.60;;;;;;;-145.68;72.06;73200.00;10579849;28;20190;-77
2023/07/04 04:07:04;;;;;;;4.78;2.40;;;;;;;-145.68;72.19;73188.00;10582185;28;20225;-77
2023/07/04 04:12:06;;;;;;;2.88;2.33;;;;;;;-145.68;71.31;73162.00;10581853;28;20226;-77
2023/07/04 04:17:06;;;;;;;3.33;2.30;;;;;;;-145.68;71.17;73162.00;10581675;28;20720;-77
2023/07/04 04:22:07;;;;;;;5.03;2.60;;;;;;;-145.68;71.57;73166.00;10581466;28;20178;-77
2023/07/04 04:27:11;;;;;;;5.45;2.80;;;;;;;-145.68;71.83;73150.03;10527425;28;20229;-77
2023/07/04 04:32:11;;;;;;;6.55;3.20;;;;;;;-145.68;71.01;73128.03;10536945;28;20261;-77
2023/07/04 04:37:11;;;;;;;5.07;3.03;;;;;;;-145.68;69.38;73102.06;10539033;28;20220;-77
2023/07/04 04:42:14;;;;;;;5.72;3.83;;;;;;;-145.68;69.12;73094.06;10538199;28;20216;-77
2023/07/04 04:47:15;;;;;;;8.48;4.00;;;;;;;-145.68;68.02;73076.06;10538488;28;20273;-76
2023/07/04 04:52:15;;;;;;;7.43;4.07;;;;;;;-145.68;67.17;73054.09;10537902;28;20230;-77
2023/07/04 04:57:16;;;;;;;8.60;4.72;;;;;;;-145.68;66.63;73056.09;10537945;28;20198;-77
2023/07/04 05:02:16;;;;;;;5.47;3.50;;;;;;;-145.68;66.48;73034.09;10537815;28;20210;-77
2023/07/04 05:07:18;;;;;;;9.10;3.55;;;;;;;-145.68;65.71;73016.13;10542710;28;20180;-77
2023/07/04 05:12:18;;;;;;;7.30;3.50;;;;;;;-145.68;65.67;73014.13;10579271;28;20217;-76
2023/07/04 05:17:19;;;;;;;7.43;4.05;;;;;;;-145.68;65.28;73040.09;10579316;28;20182;-77
2023/07/04 05:22:19;;;;;;;6.13;3.95;;;;;;;-145.68;66.21;73042.09;10579070;28;20624;-77
2023/07/04 05:27:20;;;;;;;7.53;4.22;;;;;;;-145.68;65.38;73012.13;10579377;28;20196;-77
2023/07/04 05:32:20;;;;;;;8.02;3.63;;;;;;;-145.68;65.82;73000.13;10559799;28;20226;-77
2023/07/04 05:37:20;;;;;;;9.00;4.40;;;;;;;-145.68;65.12;72974.16;10579074;28;20256;-76
2023/07/04 05:42:21;;;;;;;6.97;3.60;;;;;;;-145.68;65.35;72996.13;10577698;28;20182;-76
2023/07/04 05:47:21;;;;;;;9.20;3.58;;;;;;;-145.68;64.88;72960.16;10577929;28;20727;-76
2023/07/04 05:52:23;;;;;;;7.93;4.28;;;;;;;-145.68;64.84;73008.13;10577701;28;20693;-77
2023/07/04 05:57:29;;;;;;;6.38;3.72;;;;;;;-145.68;64.26;72956.16;10577956;28;20271;-77
2023/07/04 06:02:29;;;;;;;6.95;3.85;;;;;;;-145.68;64.26;72928.19;10577396;28;20193;-76
2023/07/04 06:07:30;;;;;;;13.00;3.53;;;;;;;-145.68;63.04;72908.19;10577285;28;20276;-76
2023/07/04 06:12:30;;;;;;;6.38;3.90;;;;;;;-145.68;62.42;72892.22;10577068;28;20306;-76
2023/07/04 06:17:31;;;;;;;8.07;4.15;;;;;;;-145.68;62.71;72926.19;10576621;28;20194;-76
2023/07/04 06:22:31;;;;;;;9.82;4.22;;;;;;;-145.68;62.37;72890.22;10576756;28;20193;-76
2023/07/04 06:27:32;;;;;;;6.95;4.35;;;;;;;-145.68;60.97;72872.22;10576875;28;20280;-76
2023/07/04 06:32:32;;;;;;;7.65;4.50;;;;;;;-145.68;58.60;72812.28;10561032;28;20226;-76
2023/07/04 06:37:32;;;;;;;8.77;4.55;;;;;;;-145.68;58.50;72836.25;10515921;28;20333;-76
2023/07/04 06:42:33;;;;;;;11.05;4.85;;;;;;;-145.68;55.76;72746.31;10532528;28;20186;-76
2023/07/04 06:47:35;;;;;;;10.98;4.90;;;;;;;-145.68;55.87;72846.25;10498551;28;20186;-77
2023/07/04 06:52:35;;;;;;;9.93;4.55;;;;;;;-145.68;54.19;72672.38;10540920;28;20202;-76
2023/07/04 06:57:35;;;;;;;10.27;4.85;;;;;;;-145.68;50.78;72496.53;10536110;28;20740;-76
2023/07/04 07:02:37;;;;;;;8.88;4.88;;;;;;;-145.68;51.87;72602.44;10540105;28;20579;-76
2023/07/04 07:07:39;;;;;;;9.32;4.55;;;;;;;-145.68;52.41;72610.44;10541031;28;20267;-77
2023/07/04 07:12:39;;;;;;;6.40;4.72;;;;;;;-145.68;50.28;72528.50;10539991;28;20233;-76
2023/07/04 07:17:39;;;;;;;8.40;4.63;;;;;;;-145.68;50.87;72558.47;10540422;28;20205;-76
2023/07/04 07:22:40;;;;;;;7.88;4.75;;;;;;;-145.68;48.49;72556.47;10541093;28;20186;-77
2023/07/04 07:27:40;;;;;;;8.88;4.72;;;;;;;-145.68;45.74;72360.66;10520904;28;20191;-78
2023/07/04 07:32:41;;;;;;;11.85;5.63;;;;;;;-145.68;44.46;72314.69;10556304;28;20226;-76
2023/07/04 07:37:41;;;;;;;7.13;4.55;;;;;;;-145.68;43.78;72280.72;10581401;28;20225;-77
2023/07/04 07:42:41;;;;;;;7.85;4.97;;;;;;;-145.68;46.77;72536.50;10581108;28;20186;-77
2023/07/04 07:47:42;;;;;;;10.77;4.90;;;;;;;-145.68;47.14;72610.44;10581268;28;20280;-77
2023/07/04 07:52:42;;;;;;;8.52;5.28;;;;;;;-145.68;46.01;72536.50;10579946;28;20213;-78
2023/07/04 07:57:42;;;;;;;6.78;4.32;;;;;;;-145.68;47.55;72514.50;10580476;28;20316;-77
2023/07/04 08:02:43;;;;;;;8.75;4.55;;;;;;;-145.68;47.33;72454.56;10578328;28;20246;-77
2023/07/04 08:07:43;;;;;;;5.25;3.92;;;;;;;-145.68;45.82;72434.59;10580155;28;20204;-77
2023/07/04 08:12:44;;;;;;;10.15;4.28;;;;;;;-145.68;44.90;72434.59;10580099;28;20206;-77
2023/07/04 08:17:44;;;;;;;6.78;4.07;;;;;;;-145.68;44.22;72362.66;10580613;28;20186;-77
2023/07/04 08:22:44;;;;;;;9.68;4.45;;;;;;;-145.68;45.66;72564.47;10579579;28;20209;-77
2023/07/04 08:27:45;;;;;;;8.65;4.28;;;;;;;-145.68;46.41;72600.44;10579382;28;20305;-76
2023/07/04 08:32:45;;;;;;;7.15;4.30;;;;;;;-145.68;45.08;72492.53;10578167;28;20317;-77
2023/07/04 08:37:45;;;;;;;5.18;3.90;;;;;;;-145.68;42.37;72376.63;10578233;28;20197;-76
2023/07/04 08:42:47;;;;;;;8.52;4.32;;;;;;;-145.68;42.68;72476.53;10577943;28;20216;-77
2023/07/04 08:47:47;;;;;;;6.03;4.45;;;;;;;-145.68;44.18;72576.47;10560510;27;20260;-76
2023/07/04 08:52:53;;;;;;;6.65;4.03;;;;;;;-145.68;42.25;72450.56;10538366;28;20225;-77
2023/07/04 08:57:58;;;;;;;11.13;4.47;;;;;;;-145.68;44.17;72512.50;10537841;28;20217;-76
2023/07/04 09:03:05;;;;;;;8.90;4.00;;;;;;;-145.68;42.35;72368.63;10556832;28;20693;-77
2023/07/04 09:08:25;;;;;;;8.93;4.45;;;;;;;-145.68;44.19;72524.50;10576350;28;20269;-76
2023/07/04 09:13:34;;;;;;;6.30;4.28;;;;;;;-145.68;41.31;72244.75;10576585;28;20210;-76
2023/07/04 09:19:01;;;;;;;7.97;4.50;;;;;;;-145.68;40.92;72288.72;10558529;28;20190;-78
2023/07/04 09:24:01;;;;;;;8.30;4.68;;;;;;;-145.68;40.95;72320.69;10532608;28;20190;-77
2023/07/04 09:29:03;;;;;;;7.15;4.78;;;;;;;-145.68;41.73;72432.59;10516791;28;20191;-76
2023/07/04 09:34:08;;;;;;;10.05;4.88;;;;;;;-145.68;42.36;72348.66;10516605;28;20644;-76
2023/07/04 09:39:09;;;;;;;7.57;4.40;;;;;;;-145.68;43.52;72430.59;10574572;28;20297;-77
2023/07/04 09:44:19;;;;;;;10.25;5.78;;;;;;;-145.68;41.85;72440.56;10576934;28;20186;-76
2023/07/04 09:49:28;;;;;;;8.93;5.32;;;;;;;-145.68;41.62;72344.66;10576243;28;20671;-77
2023/07/04 09:54:34;;;;;;;7.10;5.32;;;;;;;-145.68;40.97;72300.69;10575767;28;20217;-76
2023/07/04 09:59:34;;;;;;;8.82;5.93;;;;;;;-145.68;38.19;72116.88;10573429;28;20239;-76
2023/07/04 10:04:35;;;;;;;7.32;5.40;;;;;;;-145.68;37.93;72108.88;10533663;28;20259;-76
2023/07/04 10:10:02;;;;;;;10.73;7.25;;;;;;;-145.68;38.68;72338.66;10558616;28;20220;-76
2023/07/04 10:15:03;;;;;;;7.78;6.18;;;;;;;-145.68;40.03;72342.66;10575196;28;20327;-77
2023/07/04 10:20:12;;;;;;;11.90;7.35;;;;;;;-145.68;40.53;72300.69;10575651;28;20217;-76
2023/07/04 10:25:14;;;;;;;9.40;8.07;;;;;;;-145.68;38.71;72306.69;10574364;28;20669;-77
2023/07/04 10:30:19;;;;;;;14.57;6.40;;;;;;;-145.68;41.01;72348.66;10556583;28;20189;-76
2023/07/04 10:35:22;;;;;;;14.18;8.20;;;;;;;-145.68;40.41;72250.75;10555912;28;20234;-76
2023/07/04 10:40:23;;;;;;;10.38;7.65;;;;;;;-145.68;38.65;72310.69;10555161;28;20209;-77
2023/07/04 10:45:25;;;;;;;11.48;7.68;;;;;;;-145.68;38.44;72256.75;10556489;28;20220;-77
2023/07/04 10:50:32;;;;;;;13.13;8.82;;;;;;;-145.68;39.46;72340.66;10554313;28;20186;-76
2023/07/04 10:55:42;;;;;;;14.10;8.07;;;;;;;-145.68;39.85;72248.75;10572625;28;20218;-77
2023/07/04 11:00:48;;;;;;;13.65;8.88;;;;;;;-145.68;37.71;72166.81;10573987;28;20818;-76
2023/07/04 11:05:51;;;;;;;13.40;8.20;;;;;;;-145.68;36.69;72118.88;10555751;28;20213;-76
2023/07/04 11:10:58;;;;;;;12.10;8.43;;;;;;;-145.68;37.15;72164.81;10573055;28;20193;-76
2023/07/04 11:16:03;;;;;;;14.80;9.27;;;;;;;-145.68;35.45;71998.97;10555561;28;20263;-76
2023/07/04 11:21:10;;;;;;;15.18;8.48;;;;;;;-145.68;33.56;71941.03;10555562;28;20200;-77
2023/07/04 11:26:11;;;;;;;15.30;10.20;;;;;;;-145.68;34.49;71881.09;10573394;28;20190;-76
2023/07/04 11:31:11;;;;;;;15.23;11.15;;;;;;;-145.68;35.03;72164.81;10555281;28;20233;-76
2023/07/04 11:36:33;;;;;;;15.93;10.60;;;;;;;-145.68;34.12;71981.00;10572132;28;20210;-76
2023/07/04 11:41:37;;;;;;;13.52;10.38;;;;;;;-145.68;33.89;72016.97;10555582;28;20208;-76
2023/07/04 11:46:40;;;;;;;16.52;11.07;;;;;;;-145.68;34.66;72086.91;10558493;28;20192;-77
2023/07/04 11:51:41;;;;;;;14.77;10.90;;;;;;;-145.68;33.09;71875.09;10580508;28;20216;-77
2023/07/04 11:56:42;;;;;;;14.20;10.65;;;;;;;-145.68;34.81;72044.94;10579905;28;20190;-76
2023/07/04 12:01:51;;;;;;;15.35;10.65;;;;;;;-145.68;36.07;72176.81;10561635;28;20178;-76
2023/07/04 12:06:57;;;;;;;14.10;11.25;;;;;;;-145.68;35.66;72180.81;10579035;28;20289;-76
2023/07/04 12:11:57;;;;;;;16.52;11.52;;;;;;;-145.68;34.59;72030.94;10561483;28;20581;-76
2023/07/04 12:16:59;;;;;;;18.73;12.70;;;;;;;-145.68;33.90;72098.88;10561222;28;20181;-76
2023/07/04 12:21:59;;;;;;;19.27;13.10;;;;;;;-145.68;35.42;72114.88;10577309;28;20194;-75
2023/07/04 12:27:00;;;;;;;19.30;12.50;;;;;;;-145.68;33.98;72048.94;10558329;28;20190;-75
2023/07/04 12:32:07;;;;;;;16.30;13.00;;;;;;;-145.68;34.33;71925.06;10576224;28;20233;-75
2023/07/04 12:37:14;;;;;;;18.60;12.27;;;;;;;-145.68;33.76;72044.94;10576919;28;20210;-76
2023/07/04 12:42:25;;;;;;;17.98;12.73;;;;;;;-145.68;31.95;71667.31;10559518;28;20286;-75
2023/07/04 12:47:31;;;;;;;17.95;13.70;;;;;;;-145.68;33.07;71953.03;10558829;28;20947;-76
2023/07/04 12:52:34;;;;;;;17.63;12.35;;;;;;;-145.68;32.36;71697.28;10558402;28;20210;-75
2023/07/04 12:57:35;;;;;;;16.30;13.35;;;;;;;-145.68;30.88;71511.50;10578221;28;20240;-76
2023/07/04 13:02:35;;;;;;;19.15;15.05;;;;;;;-145.68;30.09;71493.50;10558480;28;20186;-76
2023/07/04 13:07:36;;;;;;;20.40;16.60;;;;;;;-145.68;33.05;72110.88;10559426;28;20202;-75
2023/07/04 13:12:36;;;;;;;24.60;15.07;;;;;;;-145.68;33.15;71847.13;10559369;28;20764;-75
2023/07/04 13:17:37;;;;;;;24.40;16.00;;;;;;;-145.68;32.64;71949.03;10574280;28;20215;-77
2023/07/04 13:22:38;;;;;;;21.13;17.08;;;;;;;-145.68;33.01;72020.97;10575312;28;20194;-77
2023/07/04 13:27:38;;;;;;;23.55;16.27;;;;;;;-145.68;31.56;71803.19;10541868;28;20672;-75
2023/07/04 13:32:41;;;;;;;20.50;15.82;;;;;;;-145.68;31.03;71899.09;10534344;28;21049;-76
2023/07/04 13:37:42;;;;;;;21.02;14.88;;;;;;;-145.68;30.65;71591.41;10571852;28;20557;-76
2023/07/04 13:43:04;;;;;;;21.27;16.67;;;;;;;-145.68;29.73;71535.47;10553056;28;20186;-76
2023/07/04 13:48:05;;;;;;;21.00;17.27;;;;;;;-145.68;32.07;71881.09;10576392;28;20453;-75
2023/07/04 13:53:07;;;;;;;23.73;17.05;;;;;;;-145.68;32.16;71987.00;10567708;28;20705;-76
2023/07/04 13:58:07;;;;;;;20.70;16.38;;;;;;;-145.68;32.81;72062.91;10571876;27;20295;-76
2023/07/04 14:03:08;;;;;;;20.77;16.83;;;;;;;-145.68;32.93;72118.88;10562909;27;20243;-76
2023/07/04 14:08:08;;;;;;;18.48;14.82;;;;;;;-145.68;30.95;71725.25;10530294;28;20191;-75
2023/07/04 14:13:09;;;;;;;18.60;15.45;;;;;;;-145.68;29.93;71565.44;10531974;28;20225;-75
2023/07/04 14:18:09;;;;;;;21.52;15.50;;;;;;;-145.68;31.21;71753.22;10532068;28;20288;-75
2023/07/04 14:23:09;;;;;;;20.93;15.40;;;;;;;-145.68;30.37;71645.34;10574022;28;20196;-75
2023/07/04 14:28:10;;;;;;;21.27;14.87;;;;;;;-145.68;30.59;71637.34;10556614;28;20448;-75
2023/07/04 14:33:10;;;;;;;21.75;15.48;;;;;;;-145.68;29.80;71567.44;10574143;28;20489;-76
2023/07/04 14:38:11;;;;;;;18.13;14.60;;;;;;;-145.68;28.21;71229.81;10574387;28;20217;-76
2023/07/04 14:43:11;;;;;;;16.00;13.87;;;;;;;-145.68;28.15;71449.56;10573408;28;20434;-75
2023/07/04 14:48:11;;;;;;;22.80;15.37;;;;;;;-145.68;31.38;71969.00;10556631;28;20495;-76
2023/07/04 14:53:12;;;;;;;20.55;14.70;;;;;;;-145.68;32.72;72008.97;10572024;28;20479;-75
2023/07/04 14:58:12;;;;;;;18.90;14.57;;;;;;;-145.68;32.03;71919.06;10572087;28;20346;-76
2023/07/04 15:03:13;;;;;;;22.63;15.23;;;;;;;-145.68;31.63;71779.19;10573732;28;20194;-75
2023/07/04 15:08:14;;;;;;;20.50;15.07;;;;;;;-145.68;30.34;71607.38;10571546;28;20438;-76
2023/07/04 15:13:14;;;;;;;19.92;14.85;;;;;;;-145.68;29.40;71553.44;10570988;28;20570;-76
2023/07/04 15:18:15;;;;;;;20.40;14.63;;;;;;;-145.68;30.49;71637.34;10576589;28;20194;-75
2023/07/04 15:23:15;;;;;;;19.25;14.50;;;;;;;-145.68;28.88;71379.63;10580022;28;20427;-77
2023/07/04 15:28:16;;;;;;;20.45;15.43;;;;;;;-145.68;28.06;71369.66;10578941;28;20208;-77
2023/07/04 15:33:16;;;;;;;19.42;15.10;;;;;;;-145.68;28.80;71399.63;10579701;28;20588;-76
2023/07/04 15:38:18;;;;;;;23.30;15.97;;;;;;;-145.68;30.49;71537.47;10580203;28;20228;-76
2023/07/04 15:43:19;;;;;;;19.50;14.98;;;;;;;-145.68;28.61;71425.59;10561059;28;20428;-76
2023/07/04 15:48:20;;;;;;;20.35;15.23;;;;;;;-145.68;28.14;71473.53;10580022;28;20189;-76
2023/07/04 15:53:20;;;;;;;19.03;15.17;;;;;;;-145.68;29.72;71639.34;10579855;28;20813;-76
2023/07/04 15:58:20;;;;;;;17.90;14.23;;;;;;;-145.68;30.44;71603.38;10581018;28;21000;-76
2023/07/04 16:03:21;;;;;;;23.47;15.43;;;;;;;-145.68;30.02;71567.44;10580319;28;20818;-76
2023/07/04 16:08:22;;;;;;;18.70;14.75;;;;;;;-145.68;31.70;71793.19;10580313;28;20833;-76
2023/07/04 16:13:22;;;;;;;24.90;15.48;;;;;;;-145.68;32.10;71945.03;10545989;28;20214;-76
2023/07/04 16:18:23;;;;;;;21.42;15.93;;;;;;;-145.68;33.05;71989.00;10539217;28;20205;-76
2023/07/04 16:23:23;;;;;;;19.55;15.00;;;;;;;-145.68;33.15;72008.97;10539106;28;20186;-76
2023/07/04 16:28:24;;;;;;;19.52;15.52;;;;;;;-145.68;32.57;71975.00;10537429;28;20615;-77
2023/07/04 16:33:25;;;;;;;22.48;16.27;;;;;;;-145.68;32.69;72074.91;10538697;28;20584;-76
2023/07/04 16:38:26;;;;;;;19.35;15.20;;;;;;;-145.68;33.85;72040.94;10520211;28;20217;-76
2023/07/04 16:43:26;;;;;;;20.17;15.38;;;;;;;-145.68;34.40;72024.97;10538402;28;20194;-76
2023/07/04 16:48:27;;;;;;;21.75;15.27;;;;;;;-145.68;34.11;71967.00;10577785;28;20749;-76
2023/07/04 16:53:27;;;;;;;19.67;14.40;;;;;;;-145.68;32.68;71851.13;10578983;28;20216;-76
2023/07/04 16:58:29;;;;;;;17.98;13.85;;;;;;;-145.68;33.25;71881.09;10579714;28;20194;-76
2023/07/04 17:03:29;;;;;;;20.27;15.20;;;;;;;-145.68;33.65;71907.06;10560361;28;20302;-76
2023/07/04 17:08:30;;;;;;;20.52;14.35;;;;;;;-145.68;33.87;71929.06;10560967;28;20212;-76
2023/07/04 17:13:32;;;;;;;18.65;13.90;;;;;;;-145.68;34.30;72002.97;10578050;28;20229;-76
2023/07/04 17:18:32;;;;;;;20.42;13.60;;;;;;;-145.68;34.25;71973.00;10559929;28;20190;-76
2023/07/04 17:23:32;;;;;;;19.38;13.07;;;;;;;-145.68;35.02;72048.94;10539618;28;20192;-76
2023/07/04 17:28:33;;;;;;;16.08;11.80;;;;;;;-145.68;35.66;72080.91;10557000;28;20309;-76
2023/07/04 17:33:34;;;;;;;16.13;12.70;;;;;;;-145.68;35.32;72080.91;10571356;28;20221;-76
2023/07/04 17:38:35;;;;;;;16.77;12.73;;;;;;;-145.68;36.10;72100.88;10574847;28;20204;-76
2023/07/04 17:43:35;;;;;;;17.92;12.70;;;;;;;-145.68;36.75;72142.84;10575415;28;20192;-76
2023/07/04 17:48:36;;;;;;;20.58;12.93;;;;;;;-145.68;37.11;72184.81;10558402;28;20201;-76
2023/07/04 17:53:38;;;;;;;18.42;14.23;;;;;;;-145.68;38.55;72212.78;10558600;28;20725;-76
2023/07/04 17:58:39;;;;;;;20.88;13.80;;;;;;;-145.68;40.55;72294.72;10576959;28;20218;-76
2023/07/04 18:03:42;;;;;;;18.70;13.52;;;;;;;-145.68;42.71;72374.63;10576383;28;20677;-76
2023/07/04 18:08:42;;;;;;;17.70;14.57;;;;;;;-145.68;44.88;72428.59;10576429;28;20196;-75
2023/07/04 18:13:44;;;;;;;19.23;13.60;;;;;;;-145.68;45.97;72532.50;10557902;28;20218;-75
2023/07/04 18:18:44;;;;;;;19.23;13.57;;;;;;;-145.68;47.11;72656.41;10557757;28;20196;-76
2023/07/04 18:23:47;;;;;;;20.95;14.40;;;;;;;-145.68;48.53;72694.38;10575817;28;20663;-75
2023/07/04 18:28:48;;;;;;;21.35;13.88;;;;;;;-145.68;49.40;72722.34;10575708;28;20219;-75
2023/07/04 18:33:50;;;;;;;20.23;13.20;;;;;;;-145.68;50.91;72798.28;10574185;28;20313;-76
2023/07/04 18:38:50;;;;;;;19.65;13.10;;;;;;;-145.68;52.35;72824.25;10573370;28;20210;-76
2023/07/04 18:43:51;;;;;;;20.55;14.35;;;;;;;-145.68;53.12;72876.22;10573303;28;20552;-76
2023/07/04 18:48:51;;;;;;;17.20;13.68;;;;;;;-145.68;54.21;72968.16;10573541;28;20193;-76
2023/07/04 18:53:54;;;;;;;21.55;13.93;;;;;;;-145.68;53.96;72960.16;10536904;28;20770;-75
2023/07/04 18:58:55;;;;;;;24.48;13.98;;;;;;;-145.68;54.70;72984.13;10573569;28;20219;-75
2023/07/04 19:03:56;;;;;;;19.13;12.45;;;;;;;-145.68;54.95;73002.13;10572814;28;20174;-75
2023/07/04 19:08:58;;;;;;;20.70;13.32;;;;;;;-145.68;54.36;73032.09;10573143;28;20193;-75
2023/07/04 19:14:05;;;;;;;19.02;13.80;;;;;;;-145.68;54.58;73038.09;10554662;28;20629;-75
2023/07/04 19:19:08;;;;;;;21.90;15.25;;;;;;;-145.68;55.09;73056.09;10554188;28;20303;-75
2023/07/04 19:24:08;;;;;;;21.77;13.93;;;;;;;-145.68;55.36;73076.06;10528820;28;20179;-75
2023/07/04 19:29:08;;;;;;;20.75;14.40;;;;;;;-145.68;55.82;73098.06;10529608;28;20635;-75
2023/07/04 19:34:16;;;;;;;20.13;13.77;;;;;;;-145.68;57.00;73132.03;10494759;28;1017345;-75
2023/07/04 19:39:17;;;;;;;21.13;14.23;;;;;;;-145.68;57.57;73172.00;10497145;28;20206;-75
2023/07/04 19:44:17;;;;;;;21.30;13.43;;;;;;;-145.68;57.53;73178.00;10531287;28;20617;-75
2023/07/04 19:49:18;;;;;;;19.25;13.68;;;;;;;-145.68;57.22;73178.00;10530968;28;20187;-75
2023/07/04 19:54:18;;;;;;;20.63;14.07;;;;;;;-145.68;57.33;73192.00;10531213;28;20222;-75
2023/07/04 19:59:19;;;;;;;23.38;15.27;;;;;;;-145.68;57.73;73217.97;10531173;28;20277;-75
2023/07/04 20:04:20;;;;;;;20.60;13.50;;;;;;;-145.68;58.15;73231.97;10543227;28;20192;-75
2023/07/04 20:09:20;;;;;;;22.13;14.50;;;;;;;-145.68;58.33;73249.94;10579053;28;20605;-75
2023/07/04 20:14:20;;;;;;;19.60;14.27;;;;;;;-145.68;58.67;73267.94;10578190;28;20263;-75
2023/07/04 20:19:21;;;;;;;27.67;14.80;;;;;;;-145.68;58.51;73277.94;10579600;28;20193;-75
2023/07/04 20:24:21;;;;;;;21.30;13.73;;;;;;;-145.68;59.00;73297.91;10579802;28;20276;-75
2023/07/04 20:29:22;;;;;;;21.58;14.00;;;;;;;-145.68;59.39;73311.91;10561361;28;20285;-75
2023/07/04 20:34:22;;;;;;;24.55;13.70;;;;;;;-145.68;60.02;73327.91;10580447;28;20232;-77
2023/07/04 20:39:23;;;;;;;24.88;13.63;;;;;;;-145.68;60.35;73359.88;10579929;28;20210;-77
2023/07/04 20:44:24;;;;;;;24.70;14.52;;;;;;;-145.68;60.07;73367.88;10579303;28;20268;-77
2023/07/04 20:49:24;;;;;;;21.50;13.95;;;;;;;-145.68;60.14;73373.88;10561593;28;20284;-74
2023/07/04 20:54:25;;;;;;;24.30;14.13;;;;;;;-145.68;60.98;73397.84;10579484;28;20224;-74
2023/07/04 20:59:25;;;;;;;25.40;14.60;;;;;;;-145.68;61.42;73407.84;10579101;28;20198;-74
2023/07/04 21:04:26;;;;;;;21.83;14.52;;;;;;;-145.68;61.88;73431.84;10578861;28;20690;-75
2023/07/04 21:09:29;;;;;;;22.67;15.15;;;;;;;-145.68;62.19;73439.84;10578422;28;20637;-75
2023/07/04 21:14:29;;;;;;;22.20;13.27;;;;;;;-145.68;62.33;73451.81;10577625;28;20221;-75
2023/07/04 21:19:29;;;;;;;22.55;15.35;;;;;;;-145.68;62.70;73471.81;10577794;28;20559;-76
2023/07/04 21:24:30;;;;;;;20.08;13.70;;;;;;;-145.68;63.26;73473.81;10560304;28;20571;-75
2023/07/04 21:29:30;;;;;;;19.58;13.23;;;;;;;-145.68;63.60;73487.81;10577276;28;20285;-75
2023/07/04 21:34:33;;;;;;;24.00;12.70;;;;;;;-145.68;63.78;73495.78;10577621;28;20233;-75
2023/07/04 21:39:33;;;;;;;22.25;14.45;;;;;;;-145.68;64.10;73513.78;10577525;28;20815;-75
2023/07/04 21:44:34;;;;;;;22.95;14.10;;;;;;;-145.68;64.65;73521.78;10576874;28;20300;-75
2023/07/04 21:49:36;;;;;;;22.42;14.00;;;;;;;-145.68;64.94;73527.78;10577282;28;20182;-75
2023/07/04 21:54:37;;;;;;;18.13;12.27;;;;;;;-145.68;65.41;73541.78;10558606;28;20225;-75
2023/07/04 21:59:37;;;;;;;23.48;14.63;;;;;;;-145.68;65.66;73551.75;10541861;28;20657;-75
2023/07/04 22:04:37;;;;;;;19.80;12.00;;;;;;;-145.68;66.01;73557.75;10576543;28;20186;-75
2023/07/04 22:09:38;;;;;;;21.02;12.82;;;;;;;-145.68;66.34;73563.75;10576554;28;20677;-74
2023/07/04 22:14:38;;;;;;;20.95;13.45;;;;;;;-145.68;66.24;73573.75;10576333;28;20719;-75
2023/07/04 22:19:38;;;;;;;26.60;14.70;;;;;;;-145.68;66.74;73583.75;10557755;28;20539;-75
2023/07/04 22:24:39;;;;;;;19.35;13.63;;;;;;;-145.68;66.75;73591.75;10569802;28;20186;-75
2023/07/04 22:29:39;;;;;;;23.30;13.70;;;;;;;-145.68;67.39;73601.72;10533992;28;20213;-75
2023/07/04 22:34:39;;;;;;;20.65;13.02;;;;;;;-145.68;68.20;73625.72;10533955;28;20226;-75